Terminal Aerodrome Forecast
Issued by NWS

Home | Current Version | Previous Version | Text Only | Print | Product List | Glossary On
Versions: 1 2 3 4 5 6 7 8 9 10 11 12 13 14 15 16 17 18 19 20 21 22
791
FTUS45 KPIH 220635 AAA
TAFSUN
TAF AMD
KSUN 220635Z 2207/2312 32008KT P6SM VCSH SCT020 BKN060
     FM221900 12006KT P6SM SCT050 BKN200
     FM230400 31008KT P6SM SCT200
      AMD LTD TO CLD VIS AND WIND TIL 221400=

USA.gov is the U.S. government's official web portal to all federal, state and local government web resources and services.